createdAt,value
2019-05-12T00:01:35.862Z,0.87
2019-05-12T00:04:08.093Z,0.80
2019-05-12T00:06:38.772Z,0.80
2019-05-12T00:09:09.330Z,0.77
2019-05-12T00:11:39.737Z,0.70
2019-05-12T00:14:10.188Z,0.50
2019-05-12T00:16:40.845Z,0.70
2019-05-12T00:19:11.252Z,0.70
2019-05-12T00:21:41.477Z,0.67
2019-05-12T00:24:11.861Z,0.80
2019-05-12T00:26:42.798Z,0.67
2019-05-12T00:29:13.073Z,0.70
2019-05-12T00:31:43.506Z,0.80
2019-05-12T00:34:13.787Z,0.80
2019-05-12T00:36:44.009Z,0.60
2019-05-12T00:39:14.306Z,0.77
2019-05-12T00:41:44.684Z,0.80
2019-05-12T00:44:15.080Z,0.47
2019-05-12T00:46:45.549Z,0.50
2019-05-12T00:49:18.450Z,0.60
2019-05-12T00:51:48.569Z,0.80
2019-05-12T00:54:18.973Z,0.60
2019-05-12T00:56:49.401Z,0.90
2019-05-12T00:59:19.616Z,0.50
2019-05-12T01:01:50.104Z,0.90
2019-05-12T01:04:20.590Z,0.80
2019-05-12T01:06:52.018Z,0.87
2019-05-12T01:09:22.465Z,0.70
2019-05-12T01:11:52.689Z,0.50
2019-05-12T01:14:23.170Z,0.67
2019-05-12T01:16:53.933Z,0.57
2019-05-12T01:19:24.225Z,0.77
2019-05-12T01:21:54.535Z,0.73
2019-05-12T01:24:24.765Z,0.70
2019-05-12T01:26:55.053Z,0.60
2019-05-12T01:29:25.345Z,0.83
2019-05-12T01:31:58.557Z,0.63
2019-05-12T01:34:29.058Z,0.80
2019-05-12T01:37:00.905Z,0.70
2019-05-12T01:39:31.557Z,0.50
2019-05-12T01:42:01.934Z,0.67
2019-05-12T01:44:32.429Z,0.60
2019-05-12T01:47:02.704Z,0.60
2019-05-12T01:49:32.993Z,0.90
2019-05-12T01:52:03.125Z,0.90
2019-05-12T01:54:33.344Z,0.73
2019-05-12T01:57:03.543Z,0.50
2019-05-12T01:59:34.134Z,0.60
2019-05-12T02:02:04.659Z,0.60
2019-05-12T02:04:39.381Z,0.60
2019-05-12T02:07:10.242Z,1.17
2019-05-12T02:09:40.613Z,0.60
2019-05-12T02:12:10.903Z,0.60
2019-05-12T02:14:41.270Z,0.60
2019-05-12T02:17:11.508Z,0.63
2019-05-12T02:19:41.701Z,0.63
2019-05-12T02:22:12.157Z,0.47
2019-05-12T02:24:42.469Z,0.50
2019-05-12T02:27:12.757Z,0.50
2019-05-12T02:29:42.965Z,0.53
2019-05-12T02:32:13.373Z,0.57
2019-05-12T02:34:45.702Z,0.50
2019-05-12T02:37:15.546Z,0.60
2019-05-12T02:39:45.925Z,0.57
2019-05-12T02:42:16.134Z,0.80
2019-05-12T02:44:46.654Z,0.57
2019-05-12T02:47:16.882Z,0.60
2019-05-12T02:49:47.085Z,0.70
2019-05-12T02:52:18.618Z,0.60
2019-05-12T02:54:55.623Z,0.57
2019-05-12T02:57:25.222Z,0.70
2019-05-12T02:59:54.666Z,0.53
2019-05-12T03:02:27.345Z,0.50
2019-05-12T03:05:00.942Z,0.70
2019-05-12T03:07:34.583Z,0.80
2019-05-12T03:10:06.926Z,0.50
2019-05-12T03:12:37.245Z,0.93
2019-05-12T03:15:08.110Z,0.70
2019-05-12T03:17:38.542Z,0.60
2019-05-12T03:20:09.106Z,0.90
2019-05-12T03:22:39.442Z,0.60
2019-05-12T03:25:19.979Z,0.67
2019-05-12T03:27:44.433Z,0.63
2019-05-12T03:30:18.820Z,0.60
2019-05-12T03:32:47.164Z,0.70
2019-05-12T03:35:18.342Z,0.63
2019-05-12T03:37:48.976Z,0.60
2019-05-12T03:40:19.402Z,0.60
2019-05-12T03:42:49.681Z,0.80
2019-05-12T03:45:19.941Z,0.70
2019-05-12T03:47:50.168Z,0.67
2019-05-12T03:50:20.598Z,0.53
2019-05-12T03:52:50.931Z,0.70
2019-05-12T03:55:34.432Z,0.63
2019-05-12T03:57:55.158Z,0.60
2019-05-12T04:00:25.904Z,0.50
2019-05-12T04:02:56.334Z,0.73
2019-05-12T04:05:26.726Z,0.53
2019-05-12T04:07:57.222Z,0.60
2019-05-12T04:10:27.418Z,0.70
2019-05-12T04:12:57.778Z,0.60
2019-05-12T04:15:28.046Z,0.73
2019-05-12T04:17:58.374Z,0.50
2019-05-12T04:20:28.847Z,0.60
2019-05-12T04:22:59.502Z,0.60
2019-05-12T04:25:46.342Z,0.90
2019-05-12T04:28:04.534Z,0.70
2019-05-12T04:30:35.538Z,0.50
2019-05-12T04:33:06.065Z,0.60
2019-05-12T04:35:36.536Z,0.60
2019-05-12T04:38:06.747Z,0.63
2019-05-12T04:40:36.966Z,0.70
2019-05-12T04:43:08.917Z,0.70
2019-05-12T04:45:39.205Z,0.70
2019-05-12T04:48:09.450Z,0.67
2019-05-12T04:50:39.807Z,0.97
2019-05-12T04:53:10.096Z,0.70
2019-05-12T04:55:40.390Z,1.00
2019-05-12T04:58:10.865Z,0.83
2019-05-12T05:00:41.153Z,1.43
2019-05-12T05:03:14.255Z,1.20
2019-05-12T05:05:44.452Z,0.90
2019-05-12T05:08:19.392Z,1.80
2019-05-12T05:10:47.229Z,1.93
2019-05-12T05:13:17.390Z,2.10
2019-05-12T05:15:47.798Z,2.03
2019-05-12T05:18:18.004Z,2.23
2019-05-12T05:20:48.216Z,1.87
2019-05-12T05:23:18.633Z,1.90
2019-05-12T05:25:48.893Z,1.50
2019-05-12T05:28:19.041Z,1.57
2019-05-12T05:30:49.333Z,1.67
2019-05-12T05:33:20.083Z,1.80
2019-05-12T05:35:50.701Z,1.77
2019-05-12T05:38:21.033Z,1.30
2019-05-12T05:40:53.966Z,1.70
2019-05-12T05:43:24.197Z,1.60
2019-05-12T05:46:02.499Z,2.07
2019-05-12T05:48:26.615Z,2.23
2019-05-12T05:50:59.938Z,1.83
2019-05-12T05:53:28.897Z,1.93
2019-05-12T05:56:00.263Z,1.90
2019-05-12T05:58:30.885Z,1.30
2019-05-12T06:01:03.890Z,1.30
2019-05-12T06:03:33.889Z,1.70
2019-05-12T06:06:10.811Z,2.50
2019-05-12T06:08:36.482Z,2.97
2019-05-12T06:11:08.633Z,2.53
2019-05-12T06:13:40.219Z,3.30
2019-05-12T06:16:11.613Z,3.20
2019-05-12T06:18:43.976Z,3.33
2019-05-12T06:21:14.432Z,3.40
2019-05-12T06:23:44.713Z,3.50
2019-05-12T06:26:15.168Z,3.40
2019-05-12T06:31:29.782Z,3.37
2019-05-12T06:33:57.105Z,3.10
2019-05-12T06:36:27.614Z,3.40
2019-05-12T06:38:58.029Z,3.60
2019-05-12T06:41:28.421Z,3.40
2019-05-12T06:43:59.025Z,3.57
2019-05-12T06:46:29.524Z,3.60
2019-05-12T06:49:00.865Z,4.17
2019-05-12T06:51:33.810Z,4.10
2019-05-12T06:54:10.406Z,3.97
2019-05-12T06:56:35.775Z,4.03
2019-05-12T06:59:10.512Z,5.30
2019-05-12T07:01:38.468Z,4.50
2019-05-12T07:04:10.163Z,4.50
2019-05-12T07:06:40.774Z,4.50
2019-05-12T07:09:16.365Z,4.80
2019-05-12T07:11:52.841Z,5.10
2019-05-12T07:14:22.320Z,5.03
2019-05-12T07:16:53.295Z,5.30
2019-05-12T07:19:24.958Z,5.67
2019-05-12T07:21:58.768Z,4.97
2019-05-12T07:24:25.401Z,5.70
2019-05-12T07:27:04.160Z,4.90
2019-05-12T07:29:28.288Z,5.20
2019-05-12T07:31:58.577Z,5.00
2019-05-12T07:34:29.565Z,4.93
2019-05-12T07:37:00.354Z,4.60
2019-05-12T07:39:31.116Z,4.80
2019-05-12T07:42:03.619Z,4.20
2019-05-12T07:44:39.917Z,4.47
2019-05-12T07:47:08.041Z,4.10
2019-05-12T07:49:38.786Z,4.33
2019-05-12T07:52:09.268Z,5.07
2019-05-12T07:54:39.864Z,4.70
2019-05-12T07:57:16.384Z,4.63
2019-05-12T07:59:43.781Z,4.50
2019-05-12T08:02:14.416Z,4.13
2019-05-12T08:04:44.820Z,4.33
2019-05-12T08:07:19.943Z,4.20
2019-05-12T08:09:47.173Z,3.87
2019-05-12T08:12:20.914Z,3.77
2019-05-12T08:14:49.690Z,3.70
2019-05-12T08:17:20.153Z,3.63
2019-05-12T08:19:50.486Z,3.47
2019-05-12T08:22:24.993Z,3.40
2019-05-12T08:24:53.799Z,3.10
2019-05-12T08:27:24.133Z,3.37
2019-05-12T08:30:01.102Z,3.30
2019-05-12T08:32:27.341Z,3.60
2019-05-12T08:34:57.685Z,3.07
2019-05-12T08:37:28.001Z,3.10
2019-05-12T08:40:03.400Z,3.63
2019-05-12T08:42:30.392Z,3.17
2019-05-12T08:45:00.780Z,3.33
2019-05-12T08:47:35.464Z,3.03
2019-05-12T08:50:04.784Z,3.00
2019-05-12T08:52:37.144Z,3.50
2019-05-12T08:55:07.378Z,3.13
2019-05-12T08:57:40.928Z,3.77
2019-05-12T09:00:10.414Z,3.40
2019-05-12T09:02:48.794Z,3.70
2019-05-12T09:05:14.385Z,4.10
2019-05-12T09:07:45.393Z,3.80
2019-05-12T09:10:15.854Z,4.20
2019-05-12T09:12:46.245Z,4.53
2019-05-12T09:15:16.629Z,4.47
2019-05-12T09:17:52.533Z,4.57
2019-05-12T09:20:19.297Z,4.30
2019-05-12T09:22:52.810Z,4.83
2019-05-12T09:25:23.834Z,4.40
2019-05-12T09:27:54.327Z,5.07
2019-05-12T09:30:29.132Z,5.27
2019-05-12T09:32:59.787Z,4.80
2019-05-12T09:35:34.910Z,5.40
2019-05-12T09:38:03.695Z,4.90
2019-05-12T09:40:35.824Z,4.27
2019-05-12T09:43:10.745Z,5.33
2019-05-12T09:45:40.123Z,4.57
2019-05-12T09:48:10.712Z,4.30
2019-05-12T09:50:45.652Z,4.10
2019-05-12T09:53:14.451Z,4.53
2019-05-12T09:55:45.140Z,4.60
2019-05-12T09:58:22.917Z,4.03
2019-05-12T10:00:47.647Z,4.17
2019-05-12T10:03:18.103Z,3.53
2019-05-12T10:05:48.393Z,3.20
2019-05-12T10:08:18.685Z,3.50
2019-05-12T10:10:49.131Z,3.43
2019-05-12T10:13:20.376Z,3.27
2019-05-12T10:15:53.524Z,3.83
2019-05-12T10:18:24.469Z,3.90
2019-05-12T10:20:54.917Z,2.50
2019-05-12T10:23:27.452Z,2.67
2019-05-12T10:26:01.388Z,2.70
2019-05-12T10:28:29.497Z,2.20
2019-05-12T10:30:59.893Z,2.10
2019-05-12T10:33:30.195Z,1.70
2019-05-12T10:36:06.736Z,1.63
2019-05-12T10:38:34.403Z,2.40
2019-05-12T10:41:04.870Z,2.20
2019-05-12T10:43:35.237Z,2.07
2019-05-12T10:46:05.849Z,2.23
2019-05-12T10:48:36.245Z,2.07
2019-05-12T10:51:06.593Z,2.00
2019-05-12T10:53:36.888Z,1.70
2019-05-12T10:56:07.285Z,2.00
2019-05-12T10:58:37.708Z,1.93
2019-05-12T11:01:08.682Z,1.70
2019-05-12T11:03:42.969Z,1.93
2019-05-12T11:06:11.009Z,2.00
2019-05-12T11:08:46.559Z,2.33
2019-05-12T11:11:13.714Z,1.90
2019-05-12T11:13:46.191Z,2.13
2019-05-12T11:16:16.896Z,2.40
2019-05-12T11:18:47.413Z,2.10
2019-05-12T11:21:17.885Z,2.30
2019-05-12T11:23:48.292Z,2.00
2019-05-12T11:26:18.654Z,1.73
2019-05-12T11:28:48.873Z,1.73
2019-05-12T11:31:19.308Z,2.13
2019-05-12T11:33:49.638Z,1.70
2019-05-12T11:36:20.017Z,1.80
2019-05-12T11:38:50.804Z,1.90
2019-05-12T11:41:27.979Z,2.03
2019-05-12T11:43:53.796Z,2.03
2019-05-12T11:46:24.178Z,2.27
2019-05-12T11:48:54.468Z,2.00
2019-05-12T11:51:26.957Z,1.73
2019-05-12T11:53:56.713Z,1.90
2019-05-12T11:56:27.093Z,2.20
2019-05-12T11:58:57.417Z,2.10
2019-05-12T12:01:28.889Z,1.80
2019-05-12T12:03:59.379Z,2.10
2019-05-12T12:06:29.760Z,1.83
2019-05-12T12:09:00.169Z,1.70
2019-05-12T12:11:30.445Z,2.13
2019-05-12T12:14:08.422Z,1.70
2019-05-12T12:16:34.121Z,2.10
2019-05-12T12:19:05.763Z,1.80
2019-05-12T12:21:40.357Z,1.97
2019-05-12T12:24:08.412Z,1.83
2019-05-12T12:26:38.822Z,2.03
2019-05-12T12:29:09.133Z,1.60
2019-05-12T12:31:50.263Z,1.30
2019-05-12T12:34:29.936Z,1.80
2019-05-12T12:36:54.395Z,2.10
2019-05-12T12:39:25.102Z,2.07
2019-05-12T12:42:00.327Z,2.20
2019-05-12T12:44:27.569Z,2.70
2019-05-12T12:47:00.260Z,1.77
2019-05-12T12:49:29.985Z,1.90
2019-05-12T12:52:00.197Z,1.50
2019-05-12T12:54:30.350Z,1.20
2019-05-12T12:57:06.333Z,1.63
2019-05-12T12:59:33.402Z,1.80
2019-05-12T13:02:05.797Z,1.60
2019-05-12T13:04:39.546Z,1.50
2019-05-12T13:07:07.711Z,1.50
2019-05-12T13:09:38.097Z,1.60
2019-05-12T13:12:16.029Z,1.20
2019-05-12T13:14:40.381Z,1.40
2019-05-12T13:17:10.601Z,1.00
2019-05-12T13:19:40.873Z,1.20
2019-05-12T13:22:17.127Z,1.47
2019-05-12T13:24:43.947Z,1.30
2019-05-12T13:27:19.023Z,1.70
2019-05-12T13:29:46.406Z,1.53
2019-05-12T13:32:16.732Z,1.43
2019-05-12T13:34:47.105Z,1.50
2019-05-12T13:37:19.496Z,1.60
2019-05-12T13:39:56.798Z,1.60
2019-05-12T13:42:21.485Z,1.27
2019-05-12T13:44:51.893Z,1.23
2019-05-12T13:47:22.281Z,1.50
2019-05-12T13:49:54.430Z,1.33
2019-05-12T13:52:26.439Z,1.47
2019-05-12T13:55:00.111Z,1.60
2019-05-12T13:57:28.721Z,1.87
2019-05-12T14:00:06.742Z,1.70
2019-05-12T14:02:30.846Z,1.57
2019-05-12T14:05:07.083Z,1.80
2019-05-12T14:07:34.542Z,1.67
2019-05-12T14:10:07.009Z,1.50
2019-05-12T14:12:37.349Z,2.20
2019-05-12T14:15:08.176Z,2.20
2019-05-12T14:17:40.434Z,1.87
2019-05-12T14:20:17.883Z,2.10
2019-05-12T14:22:44.558Z,2.37
2019-05-12T14:25:15.105Z,2.33
2019-05-12T14:27:46.409Z,2.50
2019-05-12T14:30:16.774Z,2.20
2019-05-12T14:32:49.358Z,2.40
2019-05-12T14:35:19.066Z,2.40
2019-05-12T14:37:49.268Z,2.10
2019-05-12T14:40:21.298Z,1.90
2019-05-12T14:42:51.641Z,2.27
2019-05-12T14:45:28.241Z,2.20
2019-05-12T14:47:54.109Z,2.10
2019-05-12T14:50:24.354Z,2.20
2019-05-12T14:52:55.917Z,2.23
2019-05-12T14:55:26.785Z,2.43
2019-05-12T14:57:57.009Z,2.00
2019-05-12T15:00:27.441Z,2.00
2019-05-12T15:02:59.133Z,2.10
2019-05-12T15:05:29.630Z,2.23
2019-05-12T15:08:00.556Z,2.30
2019-05-12T15:10:31.014Z,2.13
2019-05-12T15:13:03.416Z,1.80
2019-05-12T15:15:33.670Z,1.77
2019-05-12T15:18:09.291Z,2.00
2019-05-12T15:20:36.059Z,1.77
2019-05-12T15:23:06.355Z,1.70
2019-05-12T15:25:37.265Z,1.40
2019-05-12T15:28:07.656Z,2.07
2019-05-12T15:30:38.053Z,1.57
2019-05-12T15:33:08.354Z,1.50
2019-05-12T15:35:38.669Z,1.40
2019-05-12T15:38:14.012Z,1.93
2019-05-12T15:40:43.191Z,1.60
2019-05-12T15:43:13.902Z,1.60
2019-05-12T15:45:49.051Z,1.60
2019-05-12T15:48:18.474Z,1.33
2019-05-12T15:50:48.773Z,1.40
2019-05-12T15:53:22.134Z,1.70
2019-05-12T15:55:51.337Z,1.50
2019-05-12T15:58:21.668Z,1.80
2019-05-12T16:00:54.123Z,1.60
2019-05-12T16:03:26.387Z,1.70
2019-05-12T16:05:56.078Z,1.63
2019-05-12T16:08:26.357Z,1.70
2019-05-12T16:10:56.651Z,1.60
2019-05-12T16:13:26.925Z,1.53
2019-05-12T16:16:03.181Z,1.40
2019-05-12T16:18:29.235Z,1.87
2019-05-12T16:21:07.264Z,1.70
2019-05-12T16:23:31.425Z,2.23
2019-05-12T16:26:08.003Z,1.73
2019-05-12T16:28:33.858Z,1.43
2019-05-12T16:31:08.563Z,1.60
2019-05-12T16:33:36.882Z,1.40
2019-05-12T16:36:11.442Z,1.40
2019-05-12T16:38:39.472Z,1.40
2019-05-12T16:41:09.685Z,1.57
2019-05-12T16:43:39.988Z,1.50
2019-05-12T16:46:10.285Z,1.97
2019-05-12T16:48:42.118Z,1.40
2019-05-12T16:51:13.875Z,0.80
2019-05-12T16:53:44.498Z,0.90
2019-05-12T16:56:15.189Z,0.80
2019-05-12T16:58:45.549Z,1.30
2019-05-12T17:01:19.528Z,1.00
2019-05-12T17:03:47.808Z,1.07
2019-05-12T17:06:20.450Z,0.90
2019-05-12T17:08:50.007Z,1.00
2019-05-12T17:11:30.010Z,0.90
2019-05-12T17:13:56.701Z,0.83
2019-05-12T17:16:24.373Z,1.20
2019-05-12T17:18:54.611Z,1.60
2019-05-12T17:21:25.091Z,1.60
2019-05-12T17:23:55.466Z,1.70
2019-05-12T17:26:25.747Z,1.63
2019-05-12T17:28:56.149Z,1.90
2019-05-12T17:31:26.461Z,1.50
2019-05-12T17:34:00.156Z,1.80
2019-05-12T17:36:28.974Z,1.50
2019-05-12T17:38:59.357Z,1.40
2019-05-12T17:41:31.506Z,1.30
2019-05-12T17:44:04.173Z,1.67
2019-05-12T17:46:38.066Z,1.57
2019-05-12T17:49:05.965Z,1.10
2019-05-12T17:51:36.349Z,1.30
2019-05-12T17:54:07.241Z,1.40
2019-05-12T17:56:38.921Z,1.50
2019-05-12T17:59:14.943Z,1.70
2019-05-12T18:01:43.592Z,1.63
2019-05-12T18:04:14.064Z,1.90
2019-05-12T18:06:44.434Z,1.50
2019-05-12T18:09:19.911Z,2.30
2019-05-12T18:11:54.368Z,2.20
2019-05-12T18:14:18.925Z,1.83
2019-05-12T18:16:53.963Z,1.63
2019-05-12T18:19:21.320Z,1.80
2019-05-12T18:21:54.982Z,2.03
2019-05-12T18:24:24.100Z,1.90
2019-05-12T18:26:58.874Z,1.80
2019-05-12T18:29:26.348Z,1.90
2019-05-12T18:31:57.281Z,1.43
2019-05-12T18:34:27.717Z,4.50
2019-05-12T18:36:59.794Z,2.20
2019-05-12T18:39:30.435Z,1.97
2019-05-12T18:42:03.369Z,1.37
2019-05-12T18:44:32.887Z,1.47
2019-05-12T18:47:04.314Z,1.60
2019-05-12T18:49:34.762Z,1.50
2019-05-12T18:52:05.310Z,1.70
2019-05-12T18:54:35.703Z,1.40
2019-05-12T18:57:07.423Z,1.70
2019-05-12T18:59:37.892Z,1.70
2019-05-12T19:02:08.241Z,1.80
2019-05-12T19:04:39.718Z,1.90
2019-05-12T19:07:10.357Z,1.70
2019-05-12T19:09:43.866Z,1.90
2019-05-12T19:12:17.918Z,2.37
2019-05-12T19:14:44.575Z,2.57
2019-05-12T19:17:15.302Z,2.03
2019-05-12T19:19:46.219Z,2.10
2019-05-12T19:22:16.465Z,2.03
2019-05-12T19:24:50.113Z,2.00
2019-05-12T19:27:20.774Z,2.23
2019-05-12T19:29:50.672Z,2.03
2019-05-12T19:32:21.016Z,1.73
2019-05-12T19:34:51.237Z,1.53
2019-05-12T19:37:28.053Z,1.83
2019-05-12T19:39:53.973Z,1.67
2019-05-12T19:42:24.552Z,1.90
2019-05-12T19:44:57.781Z,1.70
2019-05-12T19:47:33.645Z,1.20
2019-05-12T19:49:59.411Z,1.40
2019-05-12T19:52:30.774Z,1.60
2019-05-12T19:55:03.518Z,1.53
2019-05-12T19:57:33.628Z,1.00
2019-05-12T20:00:06.225Z,1.37
2019-05-12T20:02:36.604Z,1.40
2019-05-12T20:05:08.044Z,1.43
2019-05-12T20:07:38.412Z,1.30
2019-05-12T20:10:12.465Z,1.40
2019-05-12T20:12:40.853Z,1.50
2019-05-12T20:15:11.601Z,1.40
2019-05-12T20:17:44.441Z,1.20
2019-05-12T20:20:17.299Z,1.20
2019-05-12T20:22:46.188Z,1.47
2019-05-12T20:25:16.705Z,1.37
2019-05-12T20:27:47.061Z,1.60
2019-05-12T20:30:20.972Z,1.20
2019-05-12T20:32:49.972Z,1.30
2019-05-12T20:35:20.464Z,1.50
2019-05-12T20:37:56.937Z,1.30
2019-05-12T20:40:23.877Z,1.23
2019-05-12T20:43:07.744Z,1.17
2019-05-12T20:45:26.395Z,0.90
2019-05-12T20:47:56.665Z,0.80
2019-05-12T20:50:33.055Z,0.80
2019-05-12T20:52:59.227Z,0.80
2019-05-12T20:55:30.209Z,1.00
2019-05-12T20:58:01.246Z,0.50
2019-05-12T21:00:33.516Z,0.77
2019-05-12T21:03:04.359Z,0.60
2019-05-12T21:05:35.149Z,0.63
2019-05-12T21:08:11.428Z,0.67
2019-05-12T21:10:37.264Z,0.50
2019-05-12T21:13:07.552Z,0.60
2019-05-12T21:15:42.702Z,0.70
2019-05-12T21:18:09.902Z,0.50
2019-05-12T21:20:40.351Z,0.60
2019-05-12T21:23:10.809Z,0.70
2019-05-12T21:25:46.063Z,0.70
2019-05-12T21:28:14.894Z,0.50
2019-05-12T21:30:48.102Z,0.50
2019-05-12T21:33:16.845Z,0.63
2019-05-12T21:35:47.057Z,0.60
2019-05-12T21:38:18.822Z,0.60
2019-05-12T21:40:49.341Z,0.70
2019-05-12T21:43:19.629Z,0.47
2019-05-12T21:45:49.842Z,0.50
2019-05-12T21:48:23.669Z,0.53
2019-05-12T21:50:53.168Z,0.50
2019-05-12T21:53:24.011Z,0.70
2019-05-12T21:56:03.677Z,0.63
2019-05-12T21:58:26.692Z,0.80
2019-05-12T22:01:05.172Z,0.70
2019-05-12T22:03:33.435Z,0.50
2019-05-12T22:06:15.547Z,0.57
2019-05-12T22:08:36.092Z,0.47
2019-05-12T22:11:11.412Z,0.60
2019-05-12T22:13:39.208Z,0.70
2019-05-12T22:16:09.486Z,0.83
2019-05-12T22:18:39.689Z,0.70
2019-05-12T22:21:10.436Z,0.63
2019-05-12T22:23:42.964Z,0.50
2019-05-12T22:26:12.587Z,0.57
2019-05-12T22:28:46.669Z,0.80
2019-05-12T22:31:14.885Z,0.60
2019-05-12T22:33:49.730Z,0.70
2019-05-12T22:36:25.637Z,0.50
2019-05-12T22:38:54.313Z,0.80
2019-05-12T22:41:21.185Z,0.50
2019-05-12T22:43:53.750Z,0.53
2019-05-12T22:46:31.301Z,0.50
2019-05-12T22:48:55.571Z,1.30
2019-05-12T22:51:26.920Z,0.40
2019-05-12T22:54:05.558Z,0.70
2019-05-12T22:56:29.565Z,0.53
2019-05-12T22:59:00.379Z,0.50
2019-05-12T23:01:34.544Z,0.90
2019-05-12T23:04:04.077Z,0.60
2019-05-12T23:06:42.200Z,0.80
2019-05-12T23:09:07.046Z,0.70
2019-05-12T23:11:37.957Z,0.73
2019-05-12T23:14:12.603Z,0.90
2019-05-12T23:16:40.364Z,0.77
2019-05-12T23:19:12.206Z,0.93
2019-05-12T23:21:43.905Z,0.80
2019-05-12T23:24:14.311Z,0.70
2019-05-12T23:26:47.710Z,0.70
2019-05-12T23:29:20.609Z,0.73
2019-05-12T23:31:48.359Z,0.77
2019-05-12T23:34:18.569Z,0.70
2019-05-12T23:36:50.377Z,0.53
2019-05-12T23:39:20.748Z,0.77
2019-05-12T23:41:51.025Z,0.87
2019-05-12T23:44:21.190Z,0.93
2019-05-12T23:46:53.683Z,0.80
2019-05-12T23:49:24.447Z,0.43
2019-05-12T23:51:54.861Z,0.90
2019-05-12T23:54:25.161Z,0.93
2019-05-12T23:56:55.445Z,0.53
2019-05-12T23:59:25.649Z,0.70
